sensor_id;sensor_type;location;lat;lon;timestamp;pressure;altitude;pressure_sealevel;temperature;humidity
68986;BME280;56035;37.534;-122.308;2023-05-20T00:01:22;101532.13;;;17.68;100.00
68986;BME280;56035;37.534;-122.308;2023-05-20T00:03:48;101528.09;;;17.49;100.00
68986;BME280;56035;37.534;-122.308;2023-05-20T00:06:14;101530.66;;;17.55;100.00
68986;BME280;56035;37.534;-122.308;2023-05-20T00:08:40;101519.22;;;17.52;100.00
68986;BME280;56035;37.534;-122.308;2023-05-20T00:11:05;101531.75;;;17.49;100.00
68986;BME280;56035;37.534;-122.308;2023-05-20T00:13:31;101525.31;;;17.49;100.00
68986;BME280;56035;37.534;-122.308;2023-05-20T00:16:00;101524.19;;;17.40;100.00
68986;BME280;56035;37.534;-122.308;2023-05-20T00:18:26;101520.25;;;17.36;100.00
68986;BME280;56035;37.534;-122.308;2023-05-20T00:20:51;101522.16;;;17.30;100.00
68986;BME280;56035;37.534;-122.308;2023-05-20T00:23:18;101527.41;;;17.26;100.00
68986;BME280;56035;37.534;-122.308;2023-05-20T00:25:44;101519.56;;;17.18;100.00
68986;BME280;56035;37.534;-122.308;2023-05-20T00:28:10;101528.75;;;17.14;100.00
68986;BME280;56035;37.534;-122.308;2023-05-20T00:30:38;101525.38;;;17.12;100.00
68986;BME280;56035;37.534;-122.308;2023-05-20T00:33:05;101522.78;;;17.00;100.00
68986;BME280;56035;37.534;-122.308;2023-05-20T00:35:31;101524.72;;;16.99;100.00
68986;BME280;56035;37.534;-122.308;2023-05-20T00:37:57;101528.00;;;16.91;100.00
68986;BME280;56035;37.534;-122.308;2023-05-20T00:40:23;101522.97;;;16.88;100.00
68986;BME280;56035;37.534;-122.308;2023-05-20T00:42:49;101527.13;;;16.85;100.00
68986;BME280;56035;37.534;-122.308;2023-05-20T00:45:15;101527.94;;;16.81;100.00
68986;BME280;56035;37.534;-122.308;2023-05-20T00:47:41;101521.78;;;16.79;100.00
68986;BME280;56035;37.534;-122.308;2023-05-20T00:50:07;101527.03;;;16.75;100.00
68986;BME280;56035;37.534;-122.308;2023-05-20T00:52:34;101521.34;;;16.65;100.00
68986;BME280;56035;37.534;-122.308;2023-05-20T00:55:01;101523.84;;;16.61;100.00
68986;BME280;56035;37.534;-122.308;2023-05-20T00:57:27;101524.34;;;16.58;100.00
68986;BME280;56035;37.534;-122.308;2023-05-20T00:59:53;101520.63;;;16.48;100.00
68986;BME280;56035;37.534;-122.308;2023-05-20T01:02:20;101511.19;;;16.49;100.00
68986;BME280;56035;37.534;-122.308;2023-05-20T01:04:46;101517.81;;;16.43;100.00
68986;BME280;56035;37.534;-122.308;2023-05-20T01:07:12;101519.97;;;16.35;100.00
68986;BME280;56035;37.534;-122.308;2023-05-20T01:09:38;101512.66;;;16.29;100.00
68986;BME280;56035;37.534;-122.308;2023-05-20T01:12:05;101523.47;;;16.26;100.00
68986;BME280;56035;37.534;-122.308;2023-05-20T01:14:35;101525.16;;;16.27;100.00
68986;BME280;56035;37.534;-122.308;2023-05-20T01:17:02;101527.28;;;16.20;100.00
68986;BME280;56035;37.534;-122.308;2023-05-20T01:19:37;101522.97;;;16.07;100.00
68986;BME280;56035;37.534;-122.308;2023-05-20T01:22:04;101525.25;;;15.88;100.00
68986;BME280;56035;37.534;-122.308;2023-05-20T01:24:31;101528.22;;;15.81;100.00
68986;BME280;56035;37.534;-122.308;2023-05-20T01:26:57;101530.38;;;15.74;100.00
68986;BME280;56035;37.534;-122.308;2023-05-20T01:29:26;101530.88;;;15.71;100.00
68986;BME280;56035;37.534;-122.308;2023-05-20T01:31:52;101523.13;;;15.56;100.00
68986;BME280;56035;37.534;-122.308;2023-05-20T01:34:19;101528.03;;;15.49;100.00
68986;BME280;56035;37.534;-122.308;2023-05-20T01:36:45;101520.41;;;15.39;100.00
68986;BME280;56035;37.534;-122.308;2023-05-20T01:39:11;101533.31;;;15.29;100.00
68986;BME280;56035;37.534;-122.308;2023-05-20T01:41:37;101529.28;;;15.19;100.00
68986;BME280;56035;37.534;-122.308;2023-05-20T01:44:05;101536.94;;;15.12;100.00
68986;BME280;56035;37.534;-122.308;2023-05-20T01:46:32;101540.41;;;15.03;100.00
68986;BME280;56035;37.534;-122.308;2023-05-20T01:48:58;101546.72;;;14.98;100.00
68986;BME280;56035;37.534;-122.308;2023-05-20T01:51:24;101542.41;;;14.90;100.00
68986;BME280;56035;37.534;-122.308;2023-05-20T01:53:50;101549.47;;;14.81;100.00
68986;BME280;56035;37.534;-122.308;2023-05-20T01:56:16;101544.59;;;14.71;100.00
68986;BME280;56035;37.534;-122.308;2023-05-20T01:58:41;101547.19;;;14.61;100.00
68986;BME280;56035;37.534;-122.308;2023-05-20T02:01:07;101538.19;;;14.54;100.00
68986;BME280;56035;37.534;-122.308;2023-05-20T02:03:33;101550.16;;;14.43;100.00
68986;BME280;56035;37.534;-122.308;2023-05-20T02:05:59;101539.28;;;14.41;100.00
68986;BME280;56035;37.534;-122.308;2023-05-20T02:08:25;101540.44;;;14.28;100.00
68986;BME280;56035;37.534;-122.308;2023-05-20T02:10:51;101540.25;;;14.18;100.00
68986;BME280;56035;37.534;-122.308;2023-05-20T02:13:16;101552.09;;;14.14;100.00
68986;BME280;56035;37.534;-122.308;2023-05-20T02:15:42;101553.81;;;14.03;100.00
68986;BME280;56035;37.534;-122.308;2023-05-20T02:18:09;101548.66;;;13.95;100.00
68986;BME280;56035;37.534;-122.308;2023-05-20T02:20:36;101547.13;;;13.87;100.00
68986;BME280;56035;37.534;-122.308;2023-05-20T02:23:02;101543.66;;;13.80;100.00
68986;BME280;56035;37.534;-122.308;2023-05-20T02:25:30;101545.94;;;13.71;100.00
68986;BME280;56035;37.534;-122.308;2023-05-20T02:27:56;101544.16;;;13.65;100.00
68986;BME280;56035;37.534;-122.308;2023-05-20T02:30:22;101550.66;;;13.59;100.00
68986;BME280;56035;37.534;-122.308;2023-05-20T02:32:48;101554.88;;;13.50;100.00
68986;BME280;56035;37.534;-122.308;2023-05-20T02:35:13;101568.75;;;13.38;100.00
68986;BME280;56035;37.534;-122.308;2023-05-20T02:37:40;101563.06;;;13.33;100.00
68986;BME280;56035;37.534;-122.308;2023-05-20T02:40:08;101566.41;;;13.23;100.00
68986;BME280;56035;37.534;-122.308;2023-05-20T02:42:34;101564.38;;;13.19;100.00
68986;BME280;56035;37.534;-122.308;2023-05-20T02:45:00;101562.31;;;13.14;100.00
68986;BME280;56035;37.534;-122.308;2023-05-20T02:47:26;101562.44;;;13.07;100.00
68986;BME280;56035;37.534;-122.308;2023-05-20T02:49:52;101560.03;;;12.99;100.00
68986;BME280;56035;37.534;-122.308;2023-05-20T02:52:18;101558.47;;;12.92;100.00
68986;BME280;56035;37.534;-122.308;2023-05-20T02:54:45;101561.56;;;12.83;100.00
68986;BME280;56035;37.534;-122.308;2023-05-20T02:57:11;101563.97;;;12.80;100.00
68986;BME280;56035;37.534;-122.308;2023-05-20T02:59:36;101562.41;;;12.72;100.00
68986;BME280;56035;37.534;-122.308;2023-05-20T03:02:02;101555.50;;;12.63;100.00
68986;BME280;56035;37.534;-122.308;2023-05-20T03:04:29;101561.50;;;12.60;100.00
68986;BME280;56035;37.534;-122.308;2023-05-20T03:06:55;101562.81;;;12.57;100.00
68986;BME280;56035;37.534;-122.308;2023-05-20T03:09:22;101564.00;;;12.50;100.00
68986;BME280;56035;37.534;-122.308;2023-05-20T03:11:49;101573.00;;;12.45;100.00
68986;BME280;56035;37.534;-122.308;2023-05-20T03:14:15;101571.41;;;12.37;100.00
68986;BME280;56035;37.534;-122.308;2023-05-20T03:16:41;101578.50;;;12.33;100.00
68986;BME280;56035;37.534;-122.308;2023-05-20T03:19:06;101572.22;;;12.26;100.00
68986;BME280;56035;37.534;-122.308;2023-05-20T03:21:32;101579.50;;;12.21;100.00
68986;BME280;56035;37.534;-122.308;2023-05-20T03:23:58;101577.22;;;12.17;100.00
68986;BME280;56035;37.534;-122.308;2023-05-20T03:26:24;101581.75;;;12.12;100.00
68986;BME280;56035;37.534;-122.308;2023-05-20T03:28:50;101584.59;;;12.05;100.00
68986;BME280;56035;37.534;-122.308;2023-05-20T03:31:15;101589.72;;;12.02;100.00
68986;BME280;56035;37.534;-122.308;2023-05-20T03:33:41;101582.38;;;11.95;100.00
68986;BME280;56035;37.534;-122.308;2023-05-20T03:36:07;101583.66;;;11.93;100.00
68986;BME280;56035;37.534;-122.308;2023-05-20T03:38:33;101590.13;;;11.87;100.00
68986;BME280;56035;37.534;-122.308;2023-05-20T03:40:59;101588.88;;;11.83;100.00
68986;BME280;56035;37.534;-122.308;2023-05-20T03:43:25;101586.56;;;11.80;100.00
68986;BME280;56035;37.534;-122.308;2023-05-20T03:45:51;101590.66;;;11.77;100.00
68986;BME280;56035;37.534;-122.308;2023-05-20T03:48:17;101595.53;;;11.75;100.00
68986;BME280;56035;37.534;-122.308;2023-05-20T03:50:43;101589.66;;;11.71;100.00
68986;BME280;56035;37.534;-122.308;2023-05-20T03:53:08;101601.97;;;11.69;100.00
68986;BME280;56035;37.534;-122.308;2023-05-20T03:55:34;101605.19;;;11.66;100.00
68986;BME280;56035;37.534;-122.308;2023-05-20T03:58:00;101598.44;;;11.62;100.00
68986;BME280;56035;37.534;-122.308;2023-05-20T04:00:26;101606.56;;;11.57;100.00
68986;BME280;56035;37.534;-122.308;2023-05-20T04:02:54;101607.00;;;11.54;100.00
68986;BME280;56035;37.534;-122.308;2023-05-20T04:05:21;101613.84;;;11.51;100.00
68986;BME280;56035;37.534;-122.308;2023-05-20T04:07:48;101622.78;;;11.46;100.00
68986;BME280;56035;37.534;-122.308;2023-05-20T04:10:14;101618.38;;;11.45;100.00
68986;BME280;56035;37.534;-122.308;2023-05-20T04:12:39;101624.97;;;11.44;100.00
68986;BME280;56035;37.534;-122.308;2023-05-20T04:15:05;101632.81;;;11.41;100.00
68986;BME280;56035;37.534;-122.308;2023-05-20T04:17:31;101636.03;;;11.38;100.00
68986;BME280;56035;37.534;-122.308;2023-05-20T04:19:57;101637.09;;;11.37;100.00
68986;BME280;56035;37.534;-122.308;2023-05-20T04:22:26;101646.66;;;11.34;100.00
68986;BME280;56035;37.534;-122.308;2023-05-20T04:24:51;101651.16;;;11.35;100.00
68986;BME280;56035;37.534;-122.308;2023-05-20T04:27:17;101657.09;;;11.32;100.00
68986;BME280;56035;37.534;-122.308;2023-05-20T04:29:45;101656.47;;;11.30;100.00
68986;BME280;56035;37.534;-122.308;2023-05-20T04:32:16;101664.59;;;11.25;100.00
68986;BME280;56035;37.534;-122.308;2023-05-20T04:34:42;101663.72;;;11.24;100.00
68986;BME280;56035;37.534;-122.308;2023-05-20T04:37:09;101662.88;;;11.24;100.00
68986;BME280;56035;37.534;-122.308;2023-05-20T04:39:35;101670.56;;;11.22;100.00
68986;BME280;56035;37.534;-122.308;2023-05-20T04:42:01;101687.56;;;11.19;100.00
68986;BME280;56035;37.534;-122.308;2023-05-20T04:44:27;101688.00;;;11.16;100.00
68986;BME280;56035;37.534;-122.308;2023-05-20T04:46:54;101679.94;;;11.14;100.00
68986;BME280;56035;37.534;-122.308;2023-05-20T04:49:22;101692.94;;;11.07;100.00
68986;BME280;56035;37.534;-122.308;2023-05-20T04:51:50;101692.94;;;11.07;100.00
68986;BME280;56035;37.534;-122.308;2023-05-20T04:54:16;101690.19;;;11.07;100.00
68986;BME280;56035;37.534;-122.308;2023-05-20T04:56:42;101702.34;;;10.99;100.00
68986;BME280;56035;37.534;-122.308;2023-05-20T04:59:08;101702.78;;;10.96;100.00
68986;BME280;56035;37.534;-122.308;2023-05-20T05:01:37;101702.97;;;10.95;100.00
68986;BME280;56035;37.534;-122.308;2023-05-20T05:04:03;101703.41;;;10.92;100.00
68986;BME280;56035;37.534;-122.308;2023-05-20T05:06:29;101694.53;;;10.90;100.00
68986;BME280;56035;37.534;-122.308;2023-05-20T05:08:56;101692.00;;;10.88;100.00
68986;BME280;56035;37.534;-122.308;2023-05-20T05:11:21;101689.06;;;10.83;100.00
68986;BME280;56035;37.534;-122.308;2023-05-20T05:13:47;101692.03;;;10.82;100.00
68986;BME280;56035;37.534;-122.308;2023-05-20T05:16:13;101698.38;;;10.82;100.00
68986;BME280;56035;37.534;-122.308;2023-05-20T05:18:39;101700.31;;;10.82;100.00
68986;BME280;56035;37.534;-122.308;2023-05-20T05:21:05;101695.03;;;10.80;100.00
68986;BME280;56035;37.534;-122.308;2023-05-20T05:23:31;101692.47;;;10.78;100.00
68986;BME280;56035;37.534;-122.308;2023-05-20T05:26:17;101694.38;;;10.78;100.00
68986;BME280;56035;37.534;-122.308;2023-05-20T05:28:42;101687.19;;;10.77;100.00
68986;BME280;56035;37.534;-122.308;2023-05-20T05:31:08;101693.34;;;10.72;100.00
68986;BME280;56035;37.534;-122.308;2023-05-20T05:33:34;101688.06;;;10.71;100.00
68986;BME280;56035;37.534;-122.308;2023-05-20T05:36:00;101687.44;;;10.69;100.00
68986;BME280;56035;37.534;-122.308;2023-05-20T05:38:26;101688.75;;;10.66;100.00
68986;BME280;56035;37.534;-122.308;2023-05-20T05:40:52;101692.78;;;10.64;100.00
68986;BME280;56035;37.534;-122.308;2023-05-20T05:43:18;101688.34;;;10.63;100.00
68986;BME280;56035;37.534;-122.308;2023-05-20T05:45:44;101694.06;;;10.61;100.00
68986;BME280;56035;37.534;-122.308;2023-05-20T05:48:10;101695.34;;;10.59;100.00
68986;BME280;56035;37.534;-122.308;2023-05-20T05:50:36;101700.44;;;10.55;100.00
68986;BME280;56035;37.534;-122.308;2023-05-20T05:53:01;101691.34;;;10.54;100.00
68986;BME280;56035;37.534;-122.308;2023-05-20T05:55:27;101696.44;;;10.51;100.00
68986;BME280;56035;37.534;-122.308;2023-05-20T05:57:53;101688.63;;;10.48;100.00
68986;BME280;56035;37.534;-122.308;2023-05-20T06:00:19;101687.13;;;10.45;100.00
68986;BME280;56035;37.534;-122.308;2023-05-20T06:02:45;101682.69;;;10.44;100.00
68986;BME280;56035;37.534;-122.308;2023-05-20T06:05:12;101686.97;;;10.40;100.00
68986;BME280;56035;37.534;-122.308;2023-05-20T06:07:37;101690.97;;;10.44;100.00
68986;BME280;56035;37.534;-122.308;2023-05-20T06:10:03;101697.13;;;10.46;100.00
68986;BME280;56035;37.534;-122.308;2023-05-20T06:12:29;101699.22;;;10.44;100.00
68986;BME280;56035;37.534;-122.308;2023-05-20T06:14:55;101697.75;;;10.42;100.00
68986;BME280;56035;37.534;-122.308;2023-05-20T06:17:21;101698.41;;;10.44;100.00
68986;BME280;56035;37.534;-122.308;2023-05-20T06:19:47;101694.16;;;10.41;100.00
68986;BME280;56035;37.534;-122.308;2023-05-20T06:22:12;101690.97;;;10.44;100.00
68986;BME280;56035;37.534;-122.308;2023-05-20T06:24:38;101683.13;;;10.41;100.00
68986;BME280;56035;37.534;-122.308;2023-05-20T06:27:05;101684.41;;;10.39;100.00
68986;BME280;56035;37.534;-122.308;2023-05-20T06:29:30;101683.34;;;10.40;100.00
68986;BME280;56035;37.534;-122.308;2023-05-20T06:31:56;101675.94;;;10.40;100.00
68986;BME280;56035;37.534;-122.308;2023-05-20T06:34:22;101685.06;;;10.41;100.00
68986;BME280;56035;37.534;-122.308;2023-05-20T06:36:48;101690.56;;;10.41;100.00
68986;BME280;56035;37.534;-122.308;2023-05-20T06:39:14;101681.22;;;10.42;100.00
68986;BME280;56035;37.534;-122.308;2023-05-20T06:41:40;101689.91;;;10.45;100.00
68986;BME280;56035;37.534;-122.308;2023-05-20T06:44:06;101686.53;;;10.43;100.00
68986;BME280;56035;37.534;-122.308;2023-05-20T06:46:32;101682.69;;;10.44;100.00
68986;BME280;56035;37.534;-122.308;2023-05-20T06:48:58;101689.72;;;10.40;100.00
68986;BME280;56035;37.534;-122.308;2023-05-20T06:51:24;101690.75;;;10.39;100.00
68986;BME280;56035;37.534;-122.308;2023-05-20T06:53:51;101689.31;;;10.37;100.00
68986;BME280;56035;37.534;-122.308;2023-05-20T06:56:17;101691.19;;;10.36;100.00
68986;BME280;56035;37.534;-122.308;2023-05-20T06:58:43;101690.56;;;10.41;100.00
68986;BME280;56035;37.534;-122.308;2023-05-20T07:01:09;101691.59;;;10.40;100.00
68986;BME280;56035;37.534;-122.308;2023-05-20T07:03:35;101699.22;;;10.44;100.00
68986;BME280;56035;37.534;-122.308;2023-05-20T07:06:00;101692.22;;;10.48;100.00
68986;BME280;56035;37.534;-122.308;2023-05-20T07:08:26;101688.84;;;10.46;100.00
68986;BME280;56035;37.534;-122.308;2023-05-20T07:10:54;101681.19;;;10.48;100.00
68986;BME280;56035;37.534;-122.308;2023-05-20T07:13:20;101688.38;;;10.49;100.00
68986;BME280;56035;37.534;-122.308;2023-05-20T07:15:48;101682.00;;;10.55;100.00
68986;BME280;56035;37.534;-122.308;2023-05-20T07:18:14;101683.06;;;10.54;100.00
68986;BME280;56035;37.534;-122.308;2023-05-20T07:20:40;101673.13;;;10.53;100.00
68986;BME280;56035;37.534;-122.308;2023-05-20T07:23:06;101676.94;;;10.52;100.00
68986;BME280;56035;37.534;-122.308;2023-05-20T07:25:32;101682.88;;;10.49;100.00
68986;BME280;56035;37.534;-122.308;2023-05-20T07:27:58;101688.22;;;10.44;100.00
68986;BME280;56035;37.534;-122.308;2023-05-20T07:30:26;101677.63;;;10.41;100.00
68986;BME280;56035;37.534;-122.308;2023-05-20T07:32:52;101686.97;;;10.40;100.00
68986;BME280;56035;37.534;-122.308;2023-05-20T07:35:18;101687.84;;;10.34;100.00
68986;BME280;56035;37.534;-122.308;2023-05-20T07:37:44;101678.09;;;10.31;100.00
68986;BME280;56035;37.534;-122.308;2023-05-20T07:40:09;101673.84;;;10.29;100.00
68986;BME280;56035;37.534;-122.308;2023-05-20T07:42:35;101682.53;;;10.32;100.00
68986;BME280;56035;37.534;-122.308;2023-05-20T07:45:01;101686.59;;;10.30;100.00
68986;BME280;56035;37.534;-122.308;2023-05-20T07:47:27;101678.09;;;10.31;100.00
68986;BME280;56035;37.534;-122.308;2023-05-20T07:49:53;101685.28;;;10.32;100.00
68986;BME280;56035;37.534;-122.308;2023-05-20T07:52:19;101682.31;;;10.34;100.00
68986;BME280;56035;37.534;-122.308;2023-05-20T07:54:45;101689.50;;;10.35;100.00
68986;BME280;56035;37.534;-122.308;2023-05-20T07:57:10;101683.16;;;10.35;100.00
68986;BME280;56035;37.534;-122.308;2023-05-20T07:59:36;101681.88;;;10.37;100.00
68986;BME280;56035;37.534;-122.308;2023-05-20T08:02:02;101685.06;;;10.41;100.00
68986;BME280;56035;37.534;-122.308;2023-05-20T08:04:28;101688.84;;;10.40;100.00
68986;BME280;56035;37.534;-122.308;2023-05-20T08:06:54;101687.13;;;10.45;100.00
68986;BME280;56035;37.534;-122.308;2023-05-20T08:09:20;101684.19;;;10.47;100.00
68986;BME280;56035;37.534;-122.308;2023-05-20T08:11:45;101682.25;;;10.47;100.00
68986;BME280;56035;37.534;-122.308;2023-05-20T08:14:11;101684.16;;;10.53;100.00
68986;BME280;56035;37.534;-122.308;2023-05-20T08:16:37;101696.19;;;10.59;100.00
68986;BME280;56035;37.534;-122.308;2023-05-20T08:19:03;101697.44;;;10.63;100.00
68986;BME280;56035;37.534;-122.308;2023-05-20T08:21:29;101700.19;;;10.70;100.00
68986;BME280;56035;37.534;-122.308;2023-05-20T08:23:55;101702.91;;;10.76;100.00
68986;BME280;56035;37.534;-122.308;2023-05-20T08:26:20;101704.38;;;10.79;100.00
68986;BME280;56035;37.534;-122.308;2023-05-20T08:28:46;101686.53;;;10.82;100.00
68986;BME280;56035;37.534;-122.308;2023-05-20T08:31:32;101686.09;;;10.85;100.00
68986;BME280;56035;37.534;-122.308;2023-05-20T08:33:58;101685.88;;;10.86;100.00
68986;BME280;56035;37.534;-122.308;2023-05-20T08:36:24;101683.72;;;10.88;100.00
68986;BME280;56035;37.534;-122.308;2023-05-20T08:38:50;101685.19;;;10.91;100.00
68986;BME280;56035;37.534;-122.308;2023-05-20T08:41:16;101678.84;;;10.90;100.00
68986;BME280;56035;37.534;-122.308;2023-05-20T08:43:42;101680.53;;;10.91;100.00
68986;BME280;56035;37.534;-122.308;2023-05-20T08:46:08;101690.28;;;10.94;100.00
68986;BME280;56035;37.534;-122.308;2023-05-20T08:48:34;101695.56;;;10.95;100.00
68986;BME280;56035;37.534;-122.308;2023-05-20T08:51:00;101695.34;;;10.97;100.00
68986;BME280;56035;37.534;-122.308;2023-05-20T08:53:27;101686.84;;;10.98;100.00
68986;BME280;56035;37.534;-122.308;2023-05-20T08:58:20;101690.63;;;11.04;100.00
68986;BME280;56035;37.534;-122.308;2023-05-20T09:00:46;101693.19;;;11.06;100.00
68986;BME280;56035;37.534;-122.308;2023-05-20T09:03:12;101689.34;;;11.07;100.00
68986;BME280;56035;37.534;-122.308;2023-05-20T09:05:37;101690.19;;;11.07;100.00
68986;BME280;56035;37.534;-122.308;2023-05-20T09:08:04;101685.50;;;11.08;100.00
68986;BME280;56035;37.534;-122.308;2023-05-20T09:10:31;101685.50;;;11.08;100.00
68986;BME280;56035;37.534;-122.308;2023-05-20T09:12:59;101693.19;;;11.06;100.00
68986;BME280;56035;37.534;-122.308;2023-05-20T09:15:25;101691.03;;;11.08;100.00
68986;BME280;56035;37.534;-122.308;2023-05-20T09:17:51;101697.81;;;11.12;100.00
68986;BME280;56035;37.534;-122.308;2023-05-20T09:20:17;101693.97;;;11.13;100.00
68986;BME280;56035;37.534;-122.308;2023-05-20T09:22:42;101697.31;;;11.15;100.00
68986;BME280;56035;37.534;-122.308;2023-05-20T09:25:08;101699.03;;;11.16;100.00
68986;BME280;56035;37.534;-122.308;2023-05-20T09:27:36;101705.41;;;11.16;100.00
68986;BME280;56035;37.534;-122.308;2023-05-20T09:30:05;101701.34;;;11.19;100.00
68986;BME280;56035;37.534;-122.308;2023-05-20T09:32:31;101691.16;;;11.19;100.00
68986;BME280;56035;37.534;-122.308;2023-05-20T09:34:57;101699.81;;;11.23;100.00
68986;BME280;56035;37.534;-122.308;2023-05-20T09:37:23;101686.66;;;11.25;100.00
68986;BME280;56035;37.534;-122.308;2023-05-20T09:42:26;101690.88;;;11.28;100.00
68986;BME280;56035;37.534;-122.308;2023-05-20T09:44:53;101688.97;;;11.28;100.00
68986;BME280;56035;37.534;-122.308;2023-05-20T09:47:19;101692.34;;;11.30;100.00
68986;BME280;56035;37.534;-122.308;2023-05-20T09:49:45;101681.09;;;11.32;100.00
68986;BME280;56035;37.534;-122.308;2023-05-20T09:52:14;101684.69;;;11.32;100.00
68986;BME280;56035;37.534;-122.308;2023-05-20T09:54:40;101680.84;;;11.33;100.00
68986;BME280;56035;37.534;-122.308;2023-05-20T09:57:07;101683.63;;;11.33;100.00
68986;BME280;56035;37.534;-122.308;2023-05-20T09:59:34;101678.72;;;11.35;100.00
68986;BME280;56035;37.534;-122.308;2023-05-20T10:02:01;101678.72;;;11.35;100.00
68986;BME280;56035;37.534;-122.308;2023-05-20T10:04:27;101674.25;;;11.34;100.00
68986;BME280;56035;37.534;-122.308;2023-05-20T10:07:03;101683.63;;;11.33;100.00
68986;BME280;56035;37.534;-122.308;2023-05-20T10:19:49;101668.34;;;11.31;100.00
68986;BME280;56035;37.534;-122.308;2023-05-20T10:22:24;101677.25;;;11.33;100.00
68986;BME280;56035;37.534;-122.308;2023-05-20T10:24:56;101674.50;;;11.33;100.00
68986;BME280;56035;37.534;-122.308;2023-05-20T10:27:22;101674.25;;;11.34;100.00
68986;BME280;56035;37.534;-122.308;2023-05-20T10:29:51;101673.41;;;11.34;100.00
68986;BME280;56035;37.534;-122.308;2023-05-20T10:32:27;101679.34;;;11.37;100.00
68986;BME280;56035;37.534;-122.308;2023-05-20T10:34:57;101676.56;;;11.37;100.00
68986;BME280;56035;37.534;-122.308;2023-05-20T10:37:29;101680.59;;;11.41;100.00
68986;BME280;56035;37.534;-122.308;2023-05-20T10:42:33;101688.88;;;11.41;100.00
68986;BME280;56035;37.534;-122.308;2023-05-20T10:44:59;101683.94;;;11.43;100.00
68986;BME280;56035;37.534;-122.308;2023-05-20T10:47:25;101676.50;;;11.44;100.00
68986;BME280;56035;37.534;-122.308;2023-05-20T10:49:50;101682.91;;;11.44;100.00
68986;BME280;56035;37.534;-122.308;2023-05-20T10:52:16;101680.97;;;11.45;100.00
68986;BME280;56035;37.534;-122.308;2023-05-20T10:54:46;101671.25;;;11.42;100.00
68986;BME280;56035;37.534;-122.308;2023-05-20T10:57:12;101679.91;;;11.46;100.00
68986;BME280;56035;37.534;-122.308;2023-05-20T10:59:38;101677.38;;;11.44;100.00
68986;BME280;56035;37.534;-122.308;2023-05-20T11:02:04;101673.75;;;11.44;100.00
68986;BME280;56035;37.534;-122.308;2023-05-20T11:04:30;101678.44;;;11.43;100.00
68986;BME280;56035;37.534;-122.308;2023-05-20T11:06:57;101686.72;;;11.43;100.00
68986;BME280;56035;37.534;-122.308;2023-05-20T11:09:23;101680.16;;;11.44;100.00
68986;BME280;56035;37.534;-122.308;2023-05-20T11:11:49;101686.72;;;11.43;100.00
68986;BME280;56035;37.534;-122.308;2023-05-20T11:14:16;101685.66;;;11.44;100.00
68986;BME280;56035;37.534;-122.308;2023-05-20T11:16:44;101681.19;;;11.43;100.00
68986;BME280;56035;37.534;-122.308;2023-05-20T11:19:14;101681.19;;;11.43;100.00
68986;BME280;56035;37.534;-122.308;2023-05-20T11:21:43;101679.28;;;11.44;100.00
68986;BME280;56035;37.534;-122.308;2023-05-20T11:24:09;101690.31;;;11.44;100.00
68986;BME280;56035;37.534;-122.308;2023-05-20T11:26:35;101689.47;;;11.43;100.00
68986;BME280;56035;37.534;-122.308;2023-05-20T11:29:01;101693.31;;;11.42;100.00
68986;BME280;56035;37.534;-122.308;2023-05-20T11:31:27;101693.69;;;11.46;100.00
68986;BME280;56035;37.534;-122.308;2023-05-20T11:33:53;101702.59;;;11.48;100.00
68986;BME280;56035;37.534;-122.308;2023-05-20T11:36:19;101693.47;;;11.47;100.00
68986;BME280;56035;37.534;-122.308;2023-05-20T11:38:46;101686.91;;;11.48;100.00
68986;BME280;56035;37.534;-122.308;2023-05-20T11:41:12;101691.56;;;11.48;100.00
68986;BME280;56035;37.534;-122.308;2023-05-20T11:43:38;101702.38;;;11.49;100.00
68986;BME280;56035;37.534;-122.308;2023-05-20T11:46:05;101701.53;;;11.49;100.00
68986;BME280;56035;37.534;-122.308;2023-05-20T11:48:31;101692.16;;;11.50;100.00
68986;BME280;56035;37.534;-122.308;2023-05-20T11:50:57;101700.44;;;11.50;100.00
68986;BME280;56035;37.534;-122.308;2023-05-20T11:53:23;101698.78;;;11.49;100.00
68986;BME280;56035;37.534;-122.308;2023-05-20T11:55:49;101705.38;;;11.48;100.00
68986;BME280;56035;37.534;-122.308;2023-05-20T11:58:16;101711.50;;;11.50;100.00
68986;BME280;56035;37.534;-122.308;2023-05-20T12:00:43;101702.16;;;11.51;100.00
68986;BME280;56035;37.534;-122.308;2023-05-20T12:03:08;101708.53;;;11.52;100.00
68986;BME280;56035;37.534;-122.308;2023-05-20T12:05:35;101704.69;;;11.53;100.00
68986;BME280;56035;37.534;-122.308;2023-05-20T12:08:01;101714.88;;;11.52;100.00
68986;BME280;56035;37.534;-122.308;2023-05-20T12:10:27;101713.19;;;11.51;100.00
68986;BME280;56035;37.534;-122.308;2023-05-20T12:12:53;101711.28;;;11.52;100.00
68986;BME280;56035;37.534;-122.308;2023-05-20T12:15:19;101712.97;;;11.53;100.00
68986;BME280;56035;37.534;-122.308;2023-05-20T12:17:46;101707.44;;;11.53;100.00
68986;BME280;56035;37.534;-122.308;2023-05-20T12:20:12;101719.09;;;11.55;100.00
68986;BME280;56035;37.534;-122.308;2023-05-20T12:23:38;67561.41;;;-146.16;100.00
68986;BME280;56035;37.534;-122.308;2023-05-20T12:27:02;67561.41;;;-146.16;100.00